Time;durP1;ratioP1;P1;durP2;ratioP2;P2;SDS_P1;SDS_P2;PMS_P1;PMS_P2;Temp;Humidity;BMP_temperature;BMP_pressure;BME280_temperature;BME280_humidity;BME280_pressure;Samples;Min_cycle;Max_cycle;Signal;HPM_P1;HPM_P2
2021/05/03 00:00:21;;;;;;;38.90;23.98;;;;;;;13.98;94.95;98264.03;3484080;28;20492;-46
2021/05/03 00:02:02;;;;;;;37.95;25.08;;;;;;;13.95;95.07;98264.09;3481100;28;20521;-47
2021/05/03 00:03:44;;;;;;;36.63;25.00;;;;;;;13.94;94.96;98267.63;3482022;28;20538;-46
2021/05/03 00:05:27;;;;;;;41.10;26.48;;;;;;;13.94;95.24;98267.63;3481759;28;20057;-48
2021/05/03 00:07:08;;;;;;;36.53;22.88;;;;;;;13.92;95.03;98266.78;3478314;28;20085;-47
2021/05/03 00:08:50;;;;;;;36.78;25.67;;;;;;;13.92;95.12;98269.38;3484131;28;20056;-47
2021/05/03 00:10:32;;;;;;;34.92;22.58;;;;;;;13.90;95.20;98267.69;3475518;28;20514;-46
2021/05/03 00:12:13;;;;;;;33.80;21.25;;;;;;;13.88;94.93;98279.91;3469927;28;20046;-46
2021/05/03 00:13:54;;;;;;;32.25;21.58;;;;;;;13.88;95.09;98276.41;3471875;28;20087;-47
2021/05/03 00:15:36;;;;;;;40.47;24.38;;;;;;;13.86;95.02;98280.81;3471682;28;20051;-47
2021/05/03 00:17:18;;;;;;;42.53;25.50;;;;;;;13.83;95.15;98279.16;3481547;28;20518;-47
2021/05/03 00:19:01;;;;;;;34.17;22.73;;;;;;;13.81;95.00;98278.31;3480879;28;20049;-47
2021/05/03 00:20:43;;;;;;;36.80;23.02;;;;;;;13.79;94.90;98272.25;3483898;28;20557;-47
2021/05/03 00:22:25;;;;;;;37.08;24.48;;;;;;;13.77;95.25;98279.25;3480427;28;20048;-47
2021/05/03 00:24:07;;;;;;;27.10;20.20;;;;;;;13.75;95.25;98277.59;3482000;28;20056;-48
2021/05/03 00:25:49;;;;;;;31.55;20.73;;;;;;;13.73;95.09;98271.56;3482537;28;20045;-47
2021/05/03 00:27:30;;;;;;;30.65;22.52;;;;;;;13.71;95.19;98274.19;3477909;28;20376;-47
2021/05/03 00:29:11;;;;;;;33.88;22.23;;;;;;;13.70;95.14;98283.75;3483682;28;20049;-46
2021/05/03 00:30:53;;;;;;;30.90;20.88;;;;;;;13.71;95.41;98275.03;3480435;28;20103;-47
2021/05/03 00:32:35;;;;;;;30.02;19.02;;;;;;;13.72;95.30;98268.06;3483758;28;20052;-47
2021/05/03 00:34:16;;;;;;;27.60;18.15;;;;;;;13.73;95.02;98275.00;3479154;28;20053;-47
2021/05/03 00:35:57;;;;;;;29.88;19.83;;;;;;;13.73;94.95;98279.38;3482164;28;20087;-47
2021/05/03 00:37:39;;;;;;;26.85;18.25;;;;;;;13.74;94.46;98283.69;3481443;28;20053;-47
2021/05/03 00:39:20;;;;;;;27.25;17.42;;;;;;;13.74;94.53;98288.91;3479034;28;20506;-47
2021/05/03 00:41:02;;;;;;;26.52;14.45;;;;;;;13.78;94.14;98291.41;3482831;28;20060;-46
2021/05/03 00:42:44;;;;;;;28.90;17.65;;;;;;;13.79;94.06;98287.91;3480005;28;20045;-46
2021/05/03 00:44:27;;;;;;;24.30;16.58;;;;;;;13.79;93.82;98294.88;3483741;28;20072;-48
2021/05/03 00:46:09;;;;;;;28.53;18.43;;;;;;;13.75;93.41;98298.44;3479266;28;20053;-47
2021/05/03 00:47:51;;;;;;;23.20;14.48;;;;;;;13.76;93.32;98297.53;3482288;28;20341;-46
2021/05/03 00:49:33;;;;;;;25.35;15.50;;;;;;;13.71;93.02;98290.69;3481179;28;20429;-46
2021/05/03 00:51:15;;;;;;;24.02;15.23;;;;;;;13.73;92.72;98295.00;3478975;28;20510;-46
2021/05/03 00:52:57;;;;;;;25.90;15.02;;;;;;;13.70;92.29;98301.13;3483669;28;20049;-46
2021/05/03 00:54:39;;;;;;;21.00;15.23;;;;;;;13.67;92.25;98302.06;3480016;28;20565;-46
2021/05/03 00:56:20;;;;;;;20.77;12.82;;;;;;;13.64;92.20;98304.72;3483425;28;20053;-47
2021/05/03 00:58:03;;;;;;;21.73;14.63;;;;;;;13.60;91.66;98295.28;3472799;28;20057;-46
2021/05/03 00:59:46;;;;;;;18.02;13.30;;;;;;;13.59;91.68;98297.91;3470566;28;20140;-57
2021/05/03 01:01:27;;;;;;;26.92;13.98;;;;;;;13.54;91.31;98295.38;3481853;28;20067;-57
2021/05/03 01:03:09;;;;;;;16.50;11.20;;;;;;;13.52;91.74;98305.84;3480244;28;20053;-57
2021/05/03 01:04:51;;;;;;;19.80;11.65;;;;;;;13.49;90.90;98302.44;3483423;28;20060;-59
2021/05/03 01:06:32;;;;;;;19.65;12.75;;;;;;;13.44;89.94;98296.44;3478526;28;20483;-58
2021/05/03 01:08:13;;;;;;;17.52;9.55;;;;;;;13.43;90.14;98297.38;3483351;28;20053;-57
2021/05/03 01:09:55;;;;;;;15.95;10.90;;;;;;;13.42;89.80;98303.44;3479992;28;20510;-57
2021/05/03 01:11:37;;;;;;;14.13;9.57;;;;;;;13.40;88.58;98300.88;3481536;28;20087;-57
2021/05/03 01:13:19;;;;;;;10.25;7.72;;;;;;;13.38;87.90;98301.81;3480302;28;20056;-57
2021/05/03 01:15:00;;;;;;;11.10;8.05;;;;;;;13.36;86.98;98303.59;3480300;28;20651;-58
2021/05/03 01:16:42;;;;;;;13.90;9.65;;;;;;;13.32;86.90;98308.84;3483085;28;20048;-57
2021/05/03 01:18:25;;;;;;;13.10;8.57;;;;;;;13.30;86.21;98307.13;3478869;28;20052;-57
2021/05/03 01:20:08;;;;;;;12.53;8.07;;;;;;;13.26;86.19;98308.94;3483463;28;20057;-58
2021/05/03 01:21:51;;;;;;;17.13;8.90;;;;;;;13.21;85.83;98318.63;3479744;28;20045;-57
2021/05/03 01:23:33;;;;;;;11.27;8.33;;;;;;;13.18;86.16;98320.38;3481276;28;20045;-57
2021/05/03 01:25:15;;;;;;;13.50;8.63;;;;;;;13.11;86.22;98323.13;3480835;28;20316;-57
2021/05/03 01:26:58;;;;;;;9.63;6.40;;;;;;;13.07;86.82;98320.59;3479749;28;20046;-59
2021/05/03 01:28:39;;;;;;;11.95;7.57;;;;;;;13.01;86.55;98318.97;3469489;28;20049;-57
2021/05/03 01:30:27;;;;;;;12.52;7.90;;;;;;;12.97;86.44;98316.47;3471427;28;20049;-57
2021/05/03 01:32:09;;;;;;;9.65;6.60;;;;;;;12.95;86.55;98322.53;3468901;28;20053;-57
2021/05/03 01:33:50;;;;;;;13.60;7.13;;;;;;;12.92;86.02;98326.94;3472034;28;20052;-57
2021/05/03 01:35:33;;;;;;;12.57;8.13;;;;;;;12.90;85.41;98318.28;3470974;28;20052;-58
2021/05/03 01:37:16;;;;;;;9.65;6.75;;;;;;;12.90;85.72;98318.28;3481782;28;20528;-57
2021/05/03 01:38:57;;;;;;;11.35;7.47;;;;;;;12.87;85.79;98313.13;3479635;28;20049;-57
2021/05/03 01:40:41;;;;;;;7.75;6.28;;;;;;;12.85;85.46;98314.91;3482374;28;20513;-57
2021/05/03 01:42:24;;;;;;;9.63;6.35;;;;;;;12.81;84.77;98310.63;3479517;28;20048;-58
2021/05/03 01:44:07;;;;;;;10.10;6.55;;;;;;;12.79;84.75;98312.38;3482252;28;20518;-56
2021/05/03 01:45:51;;;;;;;8.52;6.05;;;;;;;12.75;84.91;98314.19;3479763;28;20060;-56
2021/05/03 01:47:33;;;;;;;;;;;;;;;12.73;84.59;98310.75;3480146;28;20045;-56
2021/05/03 01:49:14;;;;;;;7.53;5.40;;;;;;;12.74;84.15;98312.47;3481778;28;20011;-56
2021/05/03 01:50:57;;;;;;;8.60;6.10;;;;;;;12.74;83.72;98304.69;3479492;28;20049;-56
2021/05/03 01:52:41;;;;;;;9.00;5.72;;;;;;;12.72;83.97;98316.84;3482948;28;20057;-56
2021/05/03 01:54:23;;;;;;;7.65;5.72;;;;;;;12.68;83.89;98312.56;3479472;28;20135;-56
2021/05/03 01:56:04;;;;;;;8.50;5.10;;;;;;;12.64;84.30;98306.56;3479410;28;20418;-56
2021/05/03 01:57:46;;;;;;;10.55;5.82;;;;;;;12.58;84.27;98301.47;3480282;28;20460;-57
2021/05/03 01:59:33;;;;;;;9.35;5.20;;;;;;;12.53;83.77;98308.50;3480451;28;20052;-55
2021/05/03 02:01:14;;;;;;;7.63;4.65;;;;;;;12.47;83.96;98316.38;3469040;28;20507;-56
2021/05/03 02:02:56;;;;;;;7.68;5.03;;;;;;;12.39;82.80;98311.31;3474712;28;20147;-56
2021/05/03 02:04:37;;;;;;;6.38;4.40;;;;;;;12.32;82.73;98307.09;3482790;28;20115;-55
2021/05/03 02:06:19;;;;;;;8.40;4.55;;;;;;;12.25;81.49;98308.91;3477886;28;20053;-56
2021/05/03 02:08:04;;;;;;;7.82;4.53;;;;;;;12.17;81.33;98313.34;3480846;28;20056;-55
2021/05/03 02:09:46;;;;;;;5.82;4.38;;;;;;;12.10;81.32;98332.53;3480548;28;20045;-55
2021/05/03 02:11:28;;;;;;;10.82;4.25;;;;;;;12.00;81.13;98329.22;3478187;28;20045;-55
2021/05/03 02:13:10;;;;;;;5.07;3.92;;;;;;;11.92;80.71;98328.44;3481227;28;20060;-56
2021/05/03 02:14:51;;;;;;;5.07;3.80;;;;;;;11.84;80.38;98330.31;3479413;28;20049;-54
2021/05/03 02:16:33;;;;;;;6.53;3.90;;;;;;;11.76;79.98;98340.78;3482023;28;20560;-55
2021/05/03 02:18:15;;;;;;;4.45;3.42;;;;;;;11.68;79.50;98330.50;3478466;28;20429;-56
2021/05/03 02:19:56;;;;;;;6.53;3.40;;;;;;;11.61;79.53;98332.31;3479316;28;20423;-55
2021/05/03 02:21:37;;;;;;;4.40;3.03;;;;;;;11.56;79.24;98341.03;3480252;28;20049;-56
2021/05/03 02:23:19;;;;;;;6.50;3.30;;;;;;;11.50;78.98;98346.28;3479220;28;20748;-55
2021/05/03 02:25:01;;;;;;;5.30;3.00;;;;;;;11.43;78.46;98348.13;3482641;28;20048;-54
2021/05/03 02:26:42;;;;;;;3.65;3.03;;;;;;;11.39;78.57;98349.88;3479093;28;20053;-55
2021/05/03 02:28:23;;;;;;;3.78;3.13;;;;;;;11.36;78.62;98346.44;3482550;28;20052;-55
2021/05/03 02:30:06;;;;;;;4.90;2.97;;;;;;;11.32;77.81;98349.94;3478223;28;20480;-56
2021/05/03 02:31:48;;;;;;;4.35;2.90;;;;;;;11.29;77.37;98348.22;3479093;28;20180;-55
2021/05/03 02:33:29;;;;;;;4.70;2.83;;;;;;;11.28;77.48;98363.81;3480294;28;20064;-54
2021/05/03 02:35:15;;;;;;;7.55;3.08;;;;;;;11.25;77.43;98368.16;3477665;28;20471;-54
2021/05/03 02:36:56;;;;;;;3.97;2.80;;;;;;;11.21;77.69;98368.19;3482576;28;20056;-54
2021/05/03 02:38:38;;;;;;;3.97;2.85;;;;;;;11.18;77.91;98368.22;3475209;28;20084;-54
2021/05/03 02:40:20;;;;;;;3.17;2.55;;;;;;;11.12;77.75;98361.38;3468834;28;20057;-56
2021/05/03 02:42:02;;;;;;;5.30;2.85;;;;;;;11.12;77.84;98368.28;3479389;28;20052;-55
2021/05/03 02:43:43;;;;;;;4.40;2.63;;;;;;;11.10;77.44;98363.13;3480424;28;20132;-55
2021/05/03 02:45:26;;;;;;;4.45;2.25;;;;;;;11.05;77.67;98363.16;3481185;28;20056;-55
2021/05/03 02:47:08;;;;;;;4.85;2.95;;;;;;;11.01;77.73;98358.03;3479022;28;20052;-56
2021/05/03 02:48:51;;;;;;;5.25;3.50;;;;;;;10.97;77.84;98370.16;3482502;28;20068;-55
2021/05/03 02:50:32;;;;;;;4.63;3.10;;;;;;;10.90;78.06;98367.63;3477559;28;20048;-56
2021/05/03 02:52:13;;;;;;;4.65;3.40;;;;;;;10.86;78.36;98387.53;3480132;28;20056;-56
2021/05/03 02:53:55;;;;;;;4.03;3.17;;;;;;;10.79;78.40;98385.88;3479053;28;20134;-55
2021/05/03 02:55:37;;;;;;;3.30;2.97;;;;;;;10.75;78.58;98400.59;3480239;28;20053;-55
2021/05/03 02:57:18;;;;;;;4.20;3.20;;;;;;;10.68;78.78;98407.56;3480829;28;20104;-55
2021/05/03 02:58:59;;;;;;;6.07;3.58;;;;;;;10.63;79.15;98404.13;3478585;28;20048;-55
2021/05/03 03:00:41;;;;;;;5.47;3.33;;;;;;;10.61;78.33;98412.81;3482213;28;20053;-55
2021/05/03 03:02:22;;;;;;;5.50;3.15;;;;;;;10.57;78.78;98427.53;3474711;28;20072;-53
2021/05/03 03:04:04;;;;;;;4.07;3.20;;;;;;;10.51;78.63;98431.88;3468448;28;20510;-54
2021/05/03 03:05:45;;;;;;;5.20;3.40;;;;;;;10.42;78.57;98419.84;3479377;28;20049;-54
2021/05/03 03:07:27;;;;;;;12.88;3.60;;;;;;;10.33;77.98;98422.50;3480000;28;20426;-54
2021/05/03 03:09:09;;;;;;;5.68;4.00;;;;;;;10.26;77.85;98430.28;3481017;28;20526;-53
2021/05/03 03:10:50;;;;;;;6.50;3.30;;;;;;;10.18;78.04;98423.44;3477524;28;20045;-54
2021/05/03 03:12:32;;;;;;;4.72;3.80;;;;;;;10.11;77.92;98435.56;3482272;28;20057;-55
2021/05/03 03:14:15;;;;;;;6.15;3.47;;;;;;;10.03;78.29;98438.16;3476793;28;20049;-54
2021/05/03 03:15:57;;;;;;;6.50;3.67;;;;;;;9.97;78.50;98448.56;3481211;28;20053;-54
2021/05/03 03:17:38;;;;;;;5.13;3.95;;;;;;;9.90;78.51;98450.31;3478651;28;20336;-55
2021/05/03 03:19:20;;;;;;;6.63;4.00;;;;;;;9.83;78.62;98455.53;3480110;28;20140;-53
2021/05/03 03:21:01;;;;;;;8.43;3.50;;;;;;;9.78;78.53;98460.72;3469633;28;20453;-53
2021/05/03 03:22:43;;;;;;;4.07;3.13;;;;;;;9.73;78.69;98465.91;3472429;28;20088;-53
2021/05/03 03:24:24;;;;;;;6.80;3.92;;;;;;;9.70;78.10;98460.75;3481908;28;20053;-51
2021/05/03 03:26:06;;;;;;;4.63;3.60;;;;;;;9.66;78.21;98458.16;3477410;28;20434;-52
2021/05/03 03:27:47;;;;;;;4.25;3.70;;;;;;;9.59;77.89;98469.38;3481586;28;20524;-54
2021/05/03 03:29:29;;;;;;;5.90;3.55;;;;;;;9.53;77.41;98468.53;3478839;28;20535;-52
2021/05/03 03:31:11;;;;;;;4.90;3.72;;;;;;;9.48;77.31;98477.19;3478458;28;20049;-46
2021/05/03 03:32:52;;;;;;;3.60;2.97;;;;;;;9.42;77.35;98479.72;3481085;28;20529;-45
2021/05/03 03:34:33;;;;;;;5.10;4.45;;;;;;;9.35;76.43;98477.16;3478926;28;20045;-46
2021/05/03 03:36:27;;;;;;;7.03;3.70;;;;;;;9.28;76.95;98485.78;3481939;28;20057;-47
2021/05/03 03:38:09;;;;;;;7.05;4.82;;;;;;;9.26;77.77;98489.22;3478547;28;20049;-46
2021/05/03 03:39:51;;;;;;;5.88;3.97;;;;;;;9.21;78.41;98476.31;3480915;28;20454;-46
2021/05/03 03:41:32;;;;;;;5.57;3.58;;;;;;;9.24;77.70;98465.06;3478804;28;20111;-46
2021/05/03 03:43:14;;;;;;;4.57;3.60;;;;;;;9.20;77.45;98476.31;3477177;28;20049;-46
2021/05/03 03:44:56;;;;;;;6.78;3.47;;;;;;;9.22;77.63;98464.22;3481733;28;20506;-45
2021/05/03 03:46:37;;;;;;;4.13;3.42;;;;;;;9.18;77.13;98472.84;3478664;28;20052;-46
2021/05/03 03:48:19;;;;;;;4.35;2.75;;;;;;;9.15;77.12;98473.69;3482034;28;20049;-46
2021/05/03 03:50:00;;;;;;;8.27;3.70;;;;;;;9.12;77.06;98481.50;3478425;28;20407;-46
2021/05/03 03:51:42;;;;;;;6.20;4.38;;;;;;;9.11;77.79;98487.50;3480670;28;20472;-46
2021/05/03 03:53:23;;;;;;;6.97;4.15;;;;;;;9.08;77.30;98497.84;3478863;28;20092;-46
2021/05/03 03:55:06;;;;;;;6.22;3.80;;;;;;;9.08;77.50;98503.03;3477026;28;20053;-46
2021/05/03 03:56:47;;;;;;;4.53;3.95;;;;;;;9.07;77.11;98516.84;3481602;28;20465;-46
2021/05/03 03:58:29;;;;;;;5.20;3.78;;;;;;;9.05;76.87;98495.28;3476943;28;20053;-46
2021/05/03 04:00:11;;;;;;;4.47;3.40;;;;;;;9.05;77.17;98506.47;3481777;28;20092;-46
2021/05/03 04:01:52;;;;;;;8.13;4.10;;;;;;;9.06;77.37;98505.59;3478666;28;20044;-53
2021/05/03 04:03:34;;;;;;;4.57;3.92;;;;;;;9.09;77.13;98509.94;3482321;28;20084;-51
2021/05/03 04:05:25;;;;;;;7.50;4.00;;;;;;;9.15;77.35;98517.69;3480778;28;20053;-53
2021/05/03 04:07:12;;;;;;;5.55;4.28;;;;;;;9.18;77.30;98511.66;3479548;28;20080;-52
2021/05/03 04:09:00;;;;;;;6.55;3.80;;;;;;;9.19;76.64;98510.78;3470373;28;20572;-54
2021/05/03 04:10:52;;;;;;;7.80;4.10;;;;;;;9.16;76.69;98517.69;3478622;28;20045;-53
2021/05/03 04:12:56;;;;;;;5.93;4.53;;;;;;;9.14;77.31;98519.41;3480863;28;20057;-52
2021/05/03 04:23:06;;;;;;;4.82;3.22;;;;;;;9.21;75.84;98538.41;3479423;28;20041;-52
2021/05/03 04:24:52;;;;;;;5.30;3.70;;;;;;;9.22;75.75;98544.44;3479376;28;20045;-54
2021/05/03 04:26:34;;;;;;;4.75;3.60;;;;;;;9.23;75.50;98548.75;3483196;28;20521;-54
2021/05/03 04:28:15;;;;;;;6.32;4.30;;;;;;;9.24;75.42;98553.94;3479306;28;20091;-53
2021/05/03 04:29:57;;;;;;;3.80;2.95;;;;;;;9.28;75.27;98568.59;3484207;28;20049;-52
2021/05/03 04:31:38;;;;;;;4.88;3.42;;;;;;;9.34;75.33;98562.56;3479213;28;20049;-53
2021/05/03 04:33:20;;;;;;;4.22;3.20;;;;;;;9.39;75.39;98565.16;3480571;28;20104;-51
2021/05/03 04:35:02;;;;;;;3.30;2.63;;;;;;;9.47;74.61;98566.94;3482515;28;20510;-52
2021/05/03 04:36:43;;;;;;;3.40;2.92;;;;;;;9.54;73.13;98566.06;3479157;28;20076;-46
2021/05/03 04:38:25;;;;;;;3.60;2.50;;;;;;;9.62;72.76;98573.81;3483815;28;20052;-45
2021/05/03 04:40:07;;;;;;;7.85;2.75;;;;;;;9.65;73.16;98566.06;3479775;28;20084;-45
2021/05/03 04:41:49;;;;;;;3.33;2.15;;;;;;;9.74;73.06;98544.47;3483917;28;20084;-46
2021/05/03 04:43:31;;;;;;;2.38;1.90;;;;;;;9.80;71.10;98556.53;3479860;28;20040;-45
2021/05/03 04:45:13;;;;;;;4.43;1.95;;;;;;;9.85;71.60;98558.25;3481760;28;20072;-45
2021/05/03 04:46:55;;;;;;;3.53;2.00;;;;;;;9.91;71.10;98558.25;3482370;28;20087;-45
2021/05/03 04:48:37;;;;;;;4.30;1.60;;;;;;;9.97;71.11;98564.31;3480089;28;20734;-46
2021/05/03 04:50:19;;;;;;;3.65;1.95;;;;;;;10.02;70.50;98565.16;3483482;28;20507;-46
2021/05/03 04:52:00;;;;;;;2.85;1.80;;;;;;;10.06;69.48;98578.09;3475532;28;20449;-45
2021/05/03 04:53:41;;;;;;;3.50;1.88;;;;;;;10.08;69.92;98562.53;3469707;28;20065;-46
2021/05/03 04:55:23;;;;;;;3.00;1.98;;;;;;;10.10;70.06;98578.94;3479581;28;20470;-46
2021/05/03 04:57:06;;;;;;;3.30;1.80;;;;;;;10.14;69.29;98574.59;3480198;28;20049;-45
2021/05/03 04:58:47;;;;;;;2.33;1.80;;;;;;;10.15;69.08;98565.97;3482203;28;20132;-46
2021/05/03 05:00:29;;;;;;;5.07;1.50;;;;;;;10.15;68.60;98578.94;3480300;28;20053;-45
2021/05/03 05:02:10;;;;;;;3.00;2.10;;;;;;;10.16;69.04;98568.56;3483528;28;20128;-48
2021/05/03 05:03:52;;;;;;;2.58;1.90;;;;;;;10.18;68.98;98579.78;3480154;28;20053;-45
2021/05/03 05:05:33;;;;;;;1.95;1.60;;;;;;;10.21;68.78;98581.50;3483613;28;20576;-46
2021/05/03 05:07:15;;;;;;;1.77;1.48;;;;;;;10.21;68.17;98597.03;3479754;28;20052;-47
2021/05/03 05:08:56;;;;;;;2.38;1.40;;;;;;;10.22;68.05;98583.25;3480018;28;20055;-46
2021/05/03 05:10:38;;;;;;;2.95;1.35;;;;;;;10.21;68.59;98577.19;3481836;28;20076;-47
2021/05/03 05:12:20;;;;;;;3.80;1.58;;;;;;;10.28;68.53;98589.28;3479935;28;20083;-51
2021/05/03 05:14:01;;;;;;;1.42;1.10;;;;;;;10.34;67.83;98582.34;3481121;28;20081;-52
2021/05/03 05:15:43;;;;;;;2.42;1.30;;;;;;;10.32;67.19;98587.53;3479597;28;20045;-45
2021/05/03 05:17:24;;;;;;;3.80;1.40;;;;;;;10.36;67.71;98599.63;3483325;28;20056;-45
2021/05/03 05:19:05;;;;;;;3.70;1.30;;;;;;;10.36;67.00;98585.78;3473771;28;20049;-46
2021/05/03 05:20:47;;;;;;;4.22;1.02;;;;;;;10.40;66.77;98606.50;3471064;28;20064;-46
2021/05/03 05:22:29;;;;;;;2.13;1.40;;;;;;;10.44;67.67;98584.91;3481219;28;20063;-51
2021/05/03 05:24:11;;;;;;;2.28;1.60;;;;;;;10.46;67.04;98585.75;3480775;28;20047;-52
2021/05/03 05:25:52;;;;;;;3.38;1.50;;;;;;;10.56;66.77;98588.31;3482483;28;20402;-49
2021/05/03 05:27:35;;;;;;;2.78;1.45;;;;;;;10.57;66.42;98572.75;3478131;28;20048;-49
2021/05/03 05:29:16;;;;;;;3.00;1.10;;;;;;;10.55;66.37;98568.41;3483360;28;20150;-50
2021/05/03 05:30:57;;;;;;;4.10;1.00;;;;;;;10.52;65.50;98574.50;3480252;28;20102;-45
2021/05/03 05:32:39;;;;;;;2.50;1.52;;;;;;;10.49;66.80;98572.78;3481537;28;20061;-46
2021/05/03 05:34:20;;;;;;;2.92;1.02;;;;;;;10.53;66.24;98552.91;3481135;28;20099;-50
2021/05/03 05:36:02;;;;;;;2.60;1.15;;;;;;;10.58;65.97;98564.13;3480265;28;20048;-50
2021/05/03 05:37:43;;;;;;;2.42;1.23;;;;;;;10.67;66.20;98563.19;3483053;28;20052;-52
2021/05/03 05:39:24;;;;;;;1.33;1.00;;;;;;;10.74;65.86;98562.31;3479677;28;20107;-51
2021/05/03 05:41:06;;;;;;;1.30;0.80;;;;;;;10.84;65.16;98563.97;3483127;28;20306;-49
2021/05/03 05:42:48;;;;;;;1.63;1.00;;;;;;;10.86;66.07;98566.56;3480096;28;20052;-45
2021/05/03 05:44:39;;;;;;;1.20;1.00;;;;;;;10.89;64.51;98582.09;3479890;28;20049;-45
2021/05/03 05:46:22;;;;;;;2.28;1.00;;;;;;;10.91;64.64;98575.19;3480794;28;20531;-46
2021/05/03 05:48:04;;;;;;;1.48;1.02;;;;;;;10.87;64.18;98578.66;3477425;28;20045;-45
2021/05/03 05:49:45;;;;;;;1.38;1.05;;;;;;;10.80;63.71;98572.63;3483210;28;20060;-45
2021/05/03 05:51:27;;;;;;;5.13;1.20;;;;;;;10.78;64.71;98574.38;3479378;28;20505;-46
2021/05/03 05:53:08;;;;;;;1.45;1.00;;;;;;;10.75;64.51;98592.56;3482847;28;20049;-48
2021/05/03 05:54:49;;;;;;;3.28;1.10;;;;;;;10.72;64.14;98578.72;3479992;28;20045;-45
2021/05/03 05:56:31;;;;;;;4.78;1.50;;;;;;;10.75;64.87;98584.75;3479891;28;20107;-48
2021/05/03 05:58:13;;;;;;;2.67;1.00;;;;;;;10.79;64.96;98596.84;3481438;28;20044;-50
2021/05/03 05:59:54;;;;;;;2.03;1.08;;;;;;;10.87;64.48;98599.41;3477053;28;20049;-51
2021/05/03 06:01:36;;;;;;;1.80;0.88;;;;;;;10.91;64.21;98601.13;3482952;28;20049;-48
2021/05/03 06:03:18;;;;;;;2.80;1.00;;;;;;;10.89;63.87;98605.47;3477179;28;20049;-49
2021/05/03 06:04:59;;;;;;;1.63;0.75;;;;;;;10.91;63.84;98611.50;3482578;28;20503;-51
2021/05/03 06:06:40;;;;;;;4.10;1.10;;;;;;;10.99;64.62;98601.97;3472629;28;20080;-47
2021/05/03 06:08:22;;;;;;;1.80;1.08;;;;;;;11.10;63.76;98619.22;3470327;28;20077;-48
2021/05/03 06:10:04;;;;;;;2.65;1.10;;;;;;;11.09;62.71;98607.94;3481502;28;20049;-47
2021/05/03 06:11:45;;;;;;;2.92;1.15;;;;;;;11.09;62.63;98604.50;3478348;28;20053;-45
2021/05/03 06:13:28;;;;;;;2.97;1.15;;;;;;;11.12;63.28;98612.28;3471364;28;20068;-45
2021/05/03 06:15:10;;;;;;;1.90;1.00;;;;;;;11.20;62.75;98629.53;3479561;28;20044;-45
2021/05/03 06:16:51;;;;;;;1.85;0.85;;;;;;;11.20;62.96;98615.66;3482637;28;20426;-44
2021/05/03 06:18:33;;;;;;;2.65;0.90;;;;;;;11.34;63.58;98629.47;3478644;28;20053;-44
2021/05/03 06:20:14;;;;;;;2.42;1.05;;;;;;;11.48;62.66;98634.56;3479437;28;20056;-44
2021/05/03 06:21:56;;;;;;;2.95;1.10;;;;;;;11.47;61.63;98624.22;3480292;28;20053;-45
2021/05/03 06:23:37;;;;;;;2.15;0.70;;;;;;;11.56;62.21;98637.13;3476707;28;20426;-45
2021/05/03 06:25:19;;;;;;;1.35;1.10;;;;;;;11.65;61.94;98636.19;3469021;28;20056;-44
2021/05/03 06:27:00;;;;;;;4.25;1.20;;;;;;;11.70;62.60;98611.91;3475681;28;20534;-45
2021/05/03 06:28:42;;;;;;;1.30;0.80;;;;;;;11.76;61.12;98648.22;3482543;28;20048;-47
2021/05/03 06:30:25;;;;;;;1.42;0.98;;;;;;;11.76;59.63;98656.00;3477823;28;20041;-46
2021/05/03 06:32:07;;;;;;;2.50;0.93;;;;;;;11.63;59.70;98650.03;3480775;28;20525;-46
2021/05/03 06:33:50;;;;;;;3.67;1.00;;;;;;;11.56;60.38;98642.31;3480427;28;20510;-45
2021/05/03 06:35:32;;;;;;;2.10;1.23;;;;;;;11.49;59.99;98651.88;3478851;28;20060;-47
2021/05/03 06:37:14;;;;;;;3.45;1.20;;;;;;;11.47;60.19;98640.66;3482374;28;20048;-45
2021/05/03 06:38:56;;;;;;;1.95;1.13;;;;;;;11.44;60.56;98643.25;3477713;28;20049;-45
2021/05/03 06:40:37;;;;;;;6.65;1.33;;;;;;;11.43;59.98;98665.78;3481922;28;20418;-45
2021/05/03 06:42:19;;;;;;;2.20;1.40;;;;;;;11.46;60.66;98648.44;3478524;28;20099;-46
2021/05/03 06:44:01;;;;;;;2.40;1.23;;;;;;;11.47;60.36;98650.19;3480314;28;20131;-48
2021/05/03 06:45:43;;;;;;;1.73;1.20;;;;;;;11.39;59.99;98665.78;3481609;28;20060;-48
2021/05/03 06:47:25;;;;;;;5.68;1.10;;;;;;;11.36;60.32;98671.88;3478832;28;20053;-49
2021/05/03 06:49:07;;;;;;;1.80;1.00;;;;;;;11.32;60.77;98664.94;3482357;28;20135;-49
2021/05/03 06:50:48;;;;;;;3.20;1.15;;;;;;;11.27;60.72;98677.09;3479264;28;20052;-49
2021/05/03 06:52:30;;;;;;;1.27;0.88;;;;;;;11.30;61.13;98666.66;3481864;28;20052;-48
2021/05/03 06:54:11;;;;;;;3.30;1.00;;;;;;;11.25;61.65;98661.53;3479249;28;20049;-48
2021/05/03 06:55:53;;;;;;;1.92;1.02;;;;;;;11.23;60.92;98668.44;3478832;28;20049;-49
2021/05/03 06:57:34;;;;;;;3.35;1.00;;;;;;;11.42;61.67;98666.63;3469861;28;20053;-49
2021/05/03 06:59:16;;;;;;;4.32;1.20;;;;;;;11.51;60.69;98654.47;3471171;28;20103;-49
2021/05/03 07:00:58;;;;;;;2.33;1.10;;;;;;;11.49;60.22;98675.25;3482358;28;20140;-49
2021/05/03 07:02:40;;;;;;;2.35;1.00;;;;;;;11.30;60.57;98687.44;3478876;28;20052;-48
2021/05/03 07:04:21;;;;;;;3.30;1.40;;;;;;;11.24;62.25;98680.56;3481352;28;20139;-49
2021/05/03 07:06:03;;;;;;;3.00;1.00;;;;;;;11.34;62.30;98693.50;3478426;28;20049;-48
2021/05/03 07:07:44;;;;;;;4.68;1.30;;;;;;;11.36;61.73;98699.56;3479878;28;20048;-49
2021/05/03 07:09:26;;;;;;;3.17;1.40;;;;;;;11.34;60.35;98703.91;3481220;28;20083;-49
2021/05/03 07:11:12;;;;;;;4.63;2.53;;;;;;;11.28;61.39;98698.72;3478633;28;20052;-48
2021/05/03 07:12:53;;;;;;;5.97;2.00;;;;;;;11.27;61.11;98687.47;3482514;28;20049;-48
2021/05/03 07:14:36;;;;;;;2.45;1.10;;;;;;;11.26;61.30;98698.72;3474805;28;20064;-49
2021/05/03 07:16:17;;;;;;;3.47;1.23;;;;;;;11.18;61.11;98693.56;3481733;28;20135;-47
2021/05/03 07:17:58;;;;;;;1.88;1.30;;;;;;;11.11;61.37;98691.88;3469297;28;20057;-48
2021/05/03 07:19:40;;;;;;;3.55;1.30;;;;;;;11.04;61.35;98705.72;3471832;28;20144;-48
2021/05/03 07:21:21;;;;;;;3.65;1.10;;;;;;;10.95;61.64;98713.53;3468101;28;20592;-48
2021/05/03 07:23:04;;;;;;;3.50;1.15;;;;;;;10.93;61.23;98707.50;3474952;28;20048;-51
2021/05/03 07:24:45;;;;;;;3.58;1.30;;;;;;;10.90;62.27;98713.59;3482180;28;20049;-45
2021/05/03 07:26:27;;;;;;;4.18;1.75;;;;;;;10.90;62.12;98710.97;3479117;28;20048;-45
2021/05/03 07:28:08;;;;;;;3.05;1.48;;;;;;;11.02;61.97;98710.94;3479661;28;20041;-45
2021/05/03 07:29:50;;;;;;;2.65;1.23;;;;;;;11.21;61.51;98705.66;3480734;28;20056;-45
2021/05/03 07:31:32;;;;;;;2.50;1.15;;;;;;;11.35;61.00;98708.22;3477373;28;20056;-50
2021/05/03 07:33:14;;;;;;;1.60;1.10;;;;;;;11.41;60.24;98722.06;3481873;28;20045;-48
2021/05/03 07:34:55;;;;;;;2.08;1.25;;;;;;;11.42;60.05;98707.31;3477530;28;20529;-48
2021/05/03 07:36:37;;;;;;;2.60;1.52;;;;;;;11.49;60.49;98703.81;3481484;28;20064;-49
2021/05/03 07:38:18;;;;;;;3.15;1.75;;;;;;;11.52;60.55;98722.00;3480497;28;20072;-48
2021/05/03 07:40:00;;;;;;;2.80;1.55;;;;;;;11.46;60.38;98719.41;3481161;28;20588;-49
2021/05/03 07:41:41;;;;;;;6.43;2.03;;;;;;;11.38;61.12;98718.59;3484154;28;20057;-48
2021/05/03 07:43:23;;;;;;;2.67;1.40;;;;;;;11.19;60.34;98728.19;3481211;28;20136;-45
2021/05/03 07:45:06;;;;;;;9.48;1.52;;;;;;;11.06;61.36;98730.81;3484110;28;20052;-49
2021/05/03 07:46:48;;;;;;;3.25;1.20;;;;;;;11.00;62.57;98729.97;3481689;28;20056;-46
2021/05/03 07:48:30;;;;;;;2.05;1.05;;;;;;;10.94;62.90;98719.63;3481600;28;20140;-46
2021/05/03 07:50:13;;;;;;;1.52;1.25;;;;;;;11.02;63.29;98713.53;3482666;28;20045;-45
2021/05/03 07:51:54;;;;;;;1.95;1.40;;;;;;;11.12;62.63;98706.56;3479878;28;20045;-45
2021/05/03 07:53:35;;;;;;;5.13;1.45;;;;;;;11.07;62.05;98724.72;3484369;28;20514;-49
2021/05/03 07:55:17;;;;;;;1.77;1.17;;;;;;;11.04;62.09;98721.28;3479543;28;20058;-49
2021/05/03 07:56:58;;;;;;;2.15;1.30;;;;;;;10.84;62.29;98726.56;3483719;28;20403;-48
2021/05/03 07:58:40;;;;;;;2.80;1.60;;;;;;;10.74;63.53;98730.03;3481053;28;20049;-50
2021/05/03 08:00:22;;;;;;;2.30;1.50;;;;;;;10.65;65.39;98721.44;3480784;28;20418;-49
2021/05/03 08:02:03;;;;;;;2.33;1.60;;;;;;;10.58;64.02;98740.47;3481977;28;20052;-48
2021/05/03 08:03:48;;;;;;;6.07;1.30;;;;;;;10.51;64.80;98727.47;3479623;28;20406;-50
2021/05/03 08:05:30;;;;;;;2.47;1.63;;;;;;;10.36;65.24;98738.75;3484149;28;20065;-49
2021/05/03 08:07:12;;;;;;;4.38;1.98;;;;;;;10.26;65.01;98732.69;3479628;28;20055;-49